sensor_id;sensor_type;location;lat;lon;timestamp;temperature;humidity
8485;DHT22;34555;49.34829940;8.43506100;2022-09-02T00:00:12;21.90;71.80
8485;DHT22;34555;49.34829940;8.43506100;2022-09-02T00:02:38;22.00;71.90
8485;DHT22;34555;49.34829940;8.43506100;2022-09-02T00:05:04;22.00;71.80
8485;DHT22;34555;49.34829940;8.43506100;2022-09-02T00:07:30;21.80;72.00
8485;DHT22;34555;49.34829940;8.43506100;2022-09-02T00:09:56;21.80;72.30
8485;DHT22;34555;49.34829940;8.43506100;2022-09-02T00:12:21;21.80;72.30
8485;DHT22;34555;49.34829940;8.43506100;2022-09-02T00:14:47;21.90;72.30
8485;DHT22;34555;49.34829940;8.43506100;2022-09-02T00:17:12;21.90;72.30
8485;DHT22;34555;49.34829940;8.43506100;2022-09-02T00:19:38;22.00;72.10
8485;DHT22;34555;49.34829940;8.43506100;2022-09-02T00:22:03;22.00;72.30
8485;DHT22;34555;49.34829940;8.43506100;2022-09-02T00:24:29;21.90;72.20
8485;DHT22;34555;49.34829940;8.43506100;2022-09-02T00:26:55;22.00;72.50
8485;DHT22;34555;49.34829940;8.43506100;2022-09-02T00:29:20;22.00;72.30
8485;DHT22;34555;49.34829940;8.43506100;2022-09-02T00:31:46;22.00;72.10
8485;DHT22;34555;49.34829940;8.43506100;2022-09-02T00:34:12;22.10;72.10
8485;DHT22;34555;49.34829940;8.43506100;2022-09-02T00:36:38;22.10;71.90
8485;DHT22;34555;49.34829940;8.43506100;2022-09-02T00:39:06;22.10;71.90
8485;DHT22;34555;49.34829940;8.43506100;2022-09-02T00:41:33;22.00;71.80
8485;DHT22;34555;49.34829940;8.43506100;2022-09-02T00:44:05;22.00;72.00
8485;DHT22;34555;49.34829940;8.43506100;2022-09-02T00:46:32;22.10;72.10
8485;DHT22;34555;49.34829940;8.43506100;2022-09-02T00:49:08;22.10;72.00
8485;DHT22;34555;49.34829940;8.43506100;2022-09-02T00:51:45;22.00;71.90
8485;DHT22;34555;49.34829940;8.43506100;2022-09-02T00:54:12;22.10;71.80
8485;DHT22;34555;49.34829940;8.43506100;2022-09-02T00:56:39;22.10;71.90
8485;DHT22;34555;49.34829940;8.43506100;2022-09-02T00:59:05;22.00;71.80
8485;DHT22;34555;49.34829940;8.43506100;2022-09-02T01:01:31;22.10;71.80
8485;DHT22;34555;49.34829940;8.43506100;2022-09-02T01:03:57;22.10;71.90
8485;DHT22;34555;49.34829940;8.43506100;2022-09-02T01:06:24;22.00;71.70
8485;DHT22;34555;49.34829940;8.43506100;2022-09-02T01:08:57;22.00;71.80
8485;DHT22;34555;49.34829940;8.43506100;2022-09-02T01:11:28;22.10;71.80
8485;DHT22;34555;49.34829940;8.43506100;2022-09-02T01:13:56;22.00;71.60
8485;DHT22;34555;49.34829940;8.43506100;2022-09-02T01:16:36;22.00;71.40
8485;DHT22;34555;49.34829940;8.43506100;2022-09-02T01:19:05;21.90;71.60
8485;DHT22;34555;49.34829940;8.43506100;2022-09-02T01:21:34;21.70;72.10
8485;DHT22;34555;49.34829940;8.43506100;2022-09-02T01:24:00;21.70;72.20
8485;DHT22;34555;49.34829940;8.43506100;2022-09-02T01:26:26;21.80;72.30
8485;DHT22;34555;49.34829940;8.43506100;2022-09-02T01:28:51;21.80;72.10
8485;DHT22;34555;49.34829940;8.43506100;2022-09-02T01:31:17;21.80;72.10
8485;DHT22;34555;49.34829940;8.43506100;2022-09-02T01:33:42;21.70;71.90
8485;DHT22;34555;49.34829940;8.43506100;2022-09-02T01:36:08;21.70;71.90
8485;DHT22;34555;49.34829940;8.43506100;2022-09-02T01:38:34;21.70;72.10
8485;DHT22;34555;49.34829940;8.43506100;2022-09-02T01:40:59;21.70;71.80
8485;DHT22;34555;49.34829940;8.43506100;2022-09-02T01:43:26;21.80;71.50
8485;DHT22;34555;49.34829940;8.43506100;2022-09-02T01:45:54;21.70;71.20
8485;DHT22;34555;49.34829940;8.43506100;2022-09-02T01:48:21;21.60;71.40
8485;DHT22;34555;49.34829940;8.43506100;2022-09-02T01:50:51;21.70;71.20
8485;DHT22;34555;49.34829940;8.43506100;2022-09-02T01:53:17;21.60;71.00
8485;DHT22;34555;49.34829940;8.43506100;2022-09-02T01:55:43;21.60;71.10
8485;DHT22;34555;49.34829940;8.43506100;2022-09-02T01:58:09;21.70;71.10
8485;DHT22;34555;49.34829940;8.43506100;2022-09-02T02:00:34;21.70;71.10
8485;DHT22;34555;49.34829940;8.43506100;2022-09-02T02:03:01;21.70;71.10
8485;DHT22;34555;49.34829940;8.43506100;2022-09-02T02:05:26;21.60;71.10
8485;DHT22;34555;49.34829940;8.43506100;2022-09-02T02:07:52;21.50;71.40
8485;DHT22;34555;49.34829940;8.43506100;2022-09-02T02:10:19;21.50;71.40
8485;DHT22;34555;49.34829940;8.43506100;2022-09-02T02:12:45;21.60;71.30
8485;DHT22;34555;49.34829940;8.43506100;2022-09-02T02:15:14;21.60;71.70
8485;DHT22;34555;49.34829940;8.43506100;2022-09-02T02:17:41;21.50;71.60
8485;DHT22;34555;49.34829940;8.43506100;2022-09-02T02:20:08;21.60;71.80
8485;DHT22;34555;49.34829940;8.43506100;2022-09-02T02:22:35;21.60;71.50
8485;DHT22;34555;49.34829940;8.43506100;2022-09-02T02:25:03;21.60;71.70
8485;DHT22;34555;49.34829940;8.43506100;2022-09-02T02:27:29;21.50;71.70
8485;DHT22;34555;49.34829940;8.43506100;2022-09-02T02:29:55;21.60;71.70
8485;DHT22;34555;49.34829940;8.43506100;2022-09-02T02:32:20;21.40;71.70
8485;DHT22;34555;49.34829940;8.43506100;2022-09-02T02:34:46;21.50;72.00
8485;DHT22;34555;49.34829940;8.43506100;2022-09-02T02:37:12;21.40;71.90
8485;DHT22;34555;49.34829940;8.43506100;2022-09-02T02:39:39;21.40;71.70
8485;DHT22;34555;49.34829940;8.43506100;2022-09-02T02:42:06;21.40;72.00
8485;DHT22;34555;49.34829940;8.43506100;2022-09-02T02:44:32;21.20;73.20
8485;DHT22;34555;49.34829940;8.43506100;2022-09-02T02:46:59;21.30;72.70
8485;DHT22;34555;49.34829940;8.43506100;2022-09-02T02:49:25;21.40;72.60
8485;DHT22;34555;49.34829940;8.43506100;2022-09-02T02:51:52;21.30;72.60
8485;DHT22;34555;49.34829940;8.43506100;2022-09-02T02:54:18;21.50;72.90
8485;DHT22;34555;49.34829940;8.43506100;2022-09-02T02:56:44;21.10;72.70
8485;DHT22;34555;49.34829940;8.43506100;2022-09-02T02:59:11;21.40;72.60
8485;DHT22;34555;49.34829940;8.43506100;2022-09-02T03:01:37;21.60;71.70
8485;DHT22;34555;49.34829940;8.43506100;2022-09-02T03:04:03;21.70;71.20
8485;DHT22;34555;49.34829940;8.43506100;2022-09-02T03:06:29;21.70;71.00
8485;DHT22;34555;49.34829940;8.43506100;2022-09-02T03:08:55;21.50;71.30
8485;DHT22;34555;49.34829940;8.43506100;2022-09-02T03:11:21;21.50;71.20
8485;DHT22;34555;49.34829940;8.43506100;2022-09-02T03:13:51;21.50;71.60
8485;DHT22;34555;49.34829940;8.43506100;2022-09-02T03:16:16;21.40;71.30
8485;DHT22;34555;49.34829940;8.43506100;2022-09-02T03:18:44;21.50;71.50
8485;DHT22;34555;49.34829940;8.43506100;2022-09-02T03:21:10;21.50;71.20
8485;DHT22;34555;49.34829940;8.43506100;2022-09-02T03:23:36;21.40;70.80
8485;DHT22;34555;49.34829940;8.43506100;2022-09-02T03:26:01;21.00;72.70
8485;DHT22;34555;49.34829940;8.43506100;2022-09-02T03:28:28;21.10;72.30
8485;DHT22;34555;49.34829940;8.43506100;2022-09-02T03:30:54;21.40;72.00
8485;DHT22;34555;49.34829940;8.43506100;2022-09-02T03:33:19;21.20;71.90
8485;DHT22;34555;49.34829940;8.43506100;2022-09-02T03:35:45;21.30;71.50
8485;DHT22;34555;49.34829940;8.43506100;2022-09-02T03:38:11;20.80;72.80
8485;DHT22;34555;49.34829940;8.43506100;2022-09-02T03:40:37;20.70;73.80
8485;DHT22;34555;49.34829940;8.43506100;2022-09-02T03:43:04;20.60;73.10
8485;DHT22;34555;49.34829940;8.43506100;2022-09-02T03:45:30;20.70;73.90
8485;DHT22;34555;49.34829940;8.43506100;2022-09-02T03:47:56;20.60;73.50
8485;DHT22;34555;49.34829940;8.43506100;2022-09-02T03:50:27;20.40;74.00
8485;DHT22;34555;49.34829940;8.43506100;2022-09-02T03:52:54;20.40;74.20
8485;DHT22;34555;49.34829940;8.43506100;2022-09-02T03:55:21;20.60;74.10
8485;DHT22;34555;49.34829940;8.43506100;2022-09-02T03:57:47;20.70;72.90
8485;DHT22;34555;49.34829940;8.43506100;2022-09-02T04:00:14;20.60;73.50
8485;DHT22;34555;49.34829940;8.43506100;2022-09-02T04:02:41;20.50;73.80
8485;DHT22;34555;49.34829940;8.43506100;2022-09-02T04:05:07;20.80;73.60
8485;DHT22;34555;49.34829940;8.43506100;2022-09-02T04:07:33;21.00;72.20
8485;DHT22;34555;49.34829940;8.43506100;2022-09-02T04:10:00;20.80;72.90
8485;DHT22;34555;49.34829940;8.43506100;2022-09-02T04:12:25;21.00;72.40
8485;DHT22;34555;49.34829940;8.43506100;2022-09-02T04:14:51;20.90;71.80
8485;DHT22;34555;49.34829940;8.43506100;2022-09-02T04:17:16;20.50;73.50
8485;DHT22;34555;49.34829940;8.43506100;2022-09-02T04:19:42;20.30;73.00
8485;DHT22;34555;49.34829940;8.43506100;2022-09-02T04:22:07;19.80;75.20
8485;DHT22;34555;49.34829940;8.43506100;2022-09-02T04:24:33;20.10;74.60
8485;DHT22;34555;49.34829940;8.43506100;2022-09-02T04:26:59;20.40;73.70
8485;DHT22;34555;49.34829940;8.43506100;2022-09-02T04:29:25;20.70;73.20
8485;DHT22;34555;49.34829940;8.43506100;2022-09-02T04:31:51;20.70;72.90
8485;DHT22;34555;49.34829940;8.43506100;2022-09-02T04:34:17;20.80;72.40
8485;DHT22;34555;49.34829940;8.43506100;2022-09-02T04:36:42;20.90;72.00
8485;DHT22;34555;49.34829940;8.43506100;2022-09-02T04:39:08;20.90;71.70
8485;DHT22;34555;49.34829940;8.43506100;2022-09-02T04:41:35;20.80;71.60
8485;DHT22;34555;49.34829940;8.43506100;2022-09-02T04:44:01;20.90;71.60
8485;DHT22;34555;49.34829940;8.43506100;2022-09-02T04:46:27;21.00;71.40
8485;DHT22;34555;49.34829940;8.43506100;2022-09-02T04:48:53;21.10;71.20
8485;DHT22;34555;49.34829940;8.43506100;2022-09-02T04:51:21;20.70;71.60
8485;DHT22;34555;49.34829940;8.43506100;2022-09-02T04:53:48;20.90;72.00
8485;DHT22;34555;49.34829940;8.43506100;2022-09-02T04:56:19;21.00;71.40
8485;DHT22;34555;49.34829940;8.43506100;2022-09-02T04:58:46;20.80;71.60
8485;DHT22;34555;49.34829940;8.43506100;2022-09-02T05:01:17;20.90;71.40
8485;DHT22;34555;49.34829940;8.43506100;2022-09-02T05:03:46;20.90;71.10
8485;DHT22;34555;49.34829940;8.43506100;2022-09-02T05:06:18;20.80;70.90
8485;DHT22;34555;49.34829940;8.43506100;2022-09-02T05:08:44;20.40;72.00
8485;DHT22;34555;49.34829940;8.43506100;2022-09-02T05:11:15;20.00;72.90
8485;DHT22;34555;49.34829940;8.43506100;2022-09-02T05:13:43;19.60;74.50
8485;DHT22;34555;49.34829940;8.43506100;2022-09-02T05:16:09;19.70;74.30
8485;DHT22;34555;49.34829940;8.43506100;2022-09-02T05:18:38;20.00;74.40
8485;DHT22;34555;49.34829940;8.43506100;2022-09-02T05:21:05;20.00;73.50
8485;DHT22;34555;49.34829940;8.43506100;2022-09-02T05:23:31;20.20;73.40
8485;DHT22;34555;49.34829940;8.43506100;2022-09-02T05:25:56;20.10;73.40
8485;DHT22;34555;49.34829940;8.43506100;2022-09-02T05:28:22;19.90;74.40
8485;DHT22;34555;49.34829940;8.43506100;2022-09-02T05:30:47;19.90;74.40
8485;DHT22;34555;49.34829940;8.43506100;2022-09-02T05:33:13;19.80;74.30
8485;DHT22;34555;49.34829940;8.43506100;2022-09-02T05:35:40;19.50;75.70
8485;DHT22;34555;49.34829940;8.43506100;2022-09-02T05:38:06;19.20;77.20
8485;DHT22;34555;49.34829940;8.43506100;2022-09-02T05:40:33;19.20;77.20
8485;DHT22;34555;49.34829940;8.43506100;2022-09-02T05:43:00;19.70;76.10
8485;DHT22;34555;49.34829940;8.43506100;2022-09-02T05:45:25;19.90;75.00
8485;DHT22;34555;49.34829940;8.43506100;2022-09-02T05:47:51;20.10;74.20
8485;DHT22;34555;49.34829940;8.43506100;2022-09-02T05:50:16;20.30;74.20
8485;DHT22;34555;49.34829940;8.43506100;2022-09-02T05:52:42;20.10;74.30
8485;DHT22;34555;49.34829940;8.43506100;2022-09-02T05:55:08;20.10;74.50
8485;DHT22;34555;49.34829940;8.43506100;2022-09-02T05:57:33;20.30;74.30
8485;DHT22;34555;49.34829940;8.43506100;2022-09-02T05:59:59;20.50;73.30
8485;DHT22;34555;49.34829940;8.43506100;2022-09-02T06:02:25;20.20;73.70
8485;DHT22;34555;49.34829940;8.43506100;2022-09-02T06:04:51;20.30;74.30
8485;DHT22;34555;49.34829940;8.43506100;2022-09-02T06:07:20;20.50;73.50
8485;DHT22;34555;49.34829940;8.43506100;2022-09-02T06:09:46;20.50;73.10
8485;DHT22;34555;49.34829940;8.43506100;2022-09-02T06:12:12;20.70;72.90
8485;DHT22;34555;49.34829940;8.43506100;2022-09-02T06:14:39;20.80;72.60
8485;DHT22;34555;49.34829940;8.43506100;2022-09-02T06:17:05;20.70;73.10
8485;DHT22;34555;49.34829940;8.43506100;2022-09-02T06:19:31;20.80;72.80
8485;DHT22;34555;49.34829940;8.43506100;2022-09-02T06:21:58;20.60;73.00
8485;DHT22;34555;49.34829940;8.43506100;2022-09-02T06:24:25;20.80;72.80
8485;DHT22;34555;49.34829940;8.43506100;2022-09-02T06:26:51;20.90;72.40
8485;DHT22;34555;49.34829940;8.43506100;2022-09-02T06:29:17;20.80;72.50
8485;DHT22;34555;49.34829940;8.43506100;2022-09-02T06:31:45;20.90;72.50
8485;DHT22;34555;49.34829940;8.43506100;2022-09-02T06:34:12;21.00;72.30
8485;DHT22;34555;49.34829940;8.43506100;2022-09-02T06:36:44;21.20;72.30
8485;DHT22;34555;49.34829940;8.43506100;2022-09-02T06:39:13;21.20;72.00
8485;DHT22;34555;49.34829940;8.43506100;2022-09-02T06:41:40;21.20;72.20
8485;DHT22;34555;49.34829940;8.43506100;2022-09-02T06:44:08;21.20;72.40
8485;DHT22;34555;49.34829940;8.43506100;2022-09-02T06:46:40;21.30;72.10
8485;DHT22;34555;49.34829940;8.43506100;2022-09-02T06:49:08;21.30;72.20
8485;DHT22;34555;49.34829940;8.43506100;2022-09-02T06:51:35;21.20;72.30
8485;DHT22;34555;49.34829940;8.43506100;2022-09-02T06:54:03;21.30;72.30
8485;DHT22;34555;49.34829940;8.43506100;2022-09-02T06:56:28;21.30;72.00
8485;DHT22;34555;49.34829940;8.43506100;2022-09-02T06:58:55;21.30;72.00
8485;DHT22;34555;49.34829940;8.43506100;2022-09-02T07:01:24;21.30;72.20
8485;DHT22;34555;49.34829940;8.43506100;2022-09-02T07:03:50;21.40;71.60
8485;DHT22;34555;49.34829940;8.43506100;2022-09-02T07:06:39;21.50;71.20
8485;DHT22;34555;49.34829940;8.43506100;2022-09-02T07:09:07;21.60;71.00
8485;DHT22;34555;49.34829940;8.43506100;2022-09-02T07:11:34;21.70;71.10
8485;DHT22;34555;49.34829940;8.43506100;2022-09-02T07:14:00;21.70;70.80
8485;DHT22;34555;49.34829940;8.43506100;2022-09-02T07:16:28;21.80;70.80
8485;DHT22;34555;49.34829940;8.43506100;2022-09-02T07:18:55;21.80;70.70
8485;DHT22;34555;49.34829940;8.43506100;2022-09-02T07:21:21;21.80;70.60
8485;DHT22;34555;49.34829940;8.43506100;2022-09-02T07:23:46;21.80;70.70
8485;DHT22;34555;49.34829940;8.43506100;2022-09-02T07:26:14;21.90;71.40
8485;DHT22;34555;49.34829940;8.43506100;2022-09-02T07:28:40;21.90;70.40
8485;DHT22;34555;49.34829940;8.43506100;2022-09-02T07:31:08;22.00;71.10
8485;DHT22;34555;49.34829940;8.43506100;2022-09-02T07:33:34;22.10;70.40
8485;DHT22;34555;49.34829940;8.43506100;2022-09-02T07:36:02;22.10;70.10
8485;DHT22;34555;49.34829940;8.43506100;2022-09-02T07:38:29;22.10;70.10
8485;DHT22;34555;49.34829940;8.43506100;2022-09-02T07:40:55;22.10;70.20
8485;DHT22;34555;49.34829940;8.43506100;2022-09-02T07:43:20;22.10;69.80
8485;DHT22;34555;49.34829940;8.43506100;2022-09-02T07:45:46;22.10;69.80
8485;DHT22;34555;49.34829940;8.43506100;2022-09-02T07:48:12;22.10;69.60
8485;DHT22;34555;49.34829940;8.43506100;2022-09-02T07:50:40;22.10;69.50
8485;DHT22;34555;49.34829940;8.43506100;2022-09-02T07:53:06;22.20;69.70
8485;DHT22;34555;49.34829940;8.43506100;2022-09-02T07:55:34;22.20;69.50
8485;DHT22;34555;49.34829940;8.43506100;2022-09-02T07:58:01;22.20;69.20
8485;DHT22;34555;49.34829940;8.43506100;2022-09-02T08:00:27;22.20;69.10
8485;DHT22;34555;49.34829940;8.43506100;2022-09-02T08:02:53;22.20;69.10
8485;DHT22;34555;49.34829940;8.43506100;2022-09-02T08:05:19;22.30;69.20
8485;DHT22;34555;49.34829940;8.43506100;2022-09-02T08:07:45;22.30;68.90
8485;DHT22;34555;49.34829940;8.43506100;2022-09-02T08:10:11;22.30;68.70
8485;DHT22;34555;49.34829940;8.43506100;2022-09-02T08:12:39;22.40;68.40
8485;DHT22;34555;49.34829940;8.43506100;2022-09-02T08:15:06;22.30;68.20
8485;DHT22;34555;49.34829940;8.43506100;2022-09-02T08:17:32;22.30;68.20
8485;DHT22;34555;49.34829940;8.43506100;2022-09-02T08:19:58;22.40;68.40
8485;DHT22;34555;49.34829940;8.43506100;2022-09-02T08:22:23;22.40;68.40
8485;DHT22;34555;49.34829940;8.43506100;2022-09-02T08:24:50;22.40;68.40
8485;DHT22;34555;49.34829940;8.43506100;2022-09-02T08:27:15;22.40;68.40
8485;DHT22;34555;49.34829940;8.43506100;2022-09-02T08:29:41;22.50;68.50
8485;DHT22;34555;49.34829940;8.43506100;2022-09-02T08:32:07;22.50;68.50
8485;DHT22;34555;49.34829940;8.43506100;2022-09-02T08:34:32;22.50;68.40
8485;DHT22;34555;49.34829940;8.43506100;2022-09-02T08:36:58;22.50;68.20
8485;DHT22;34555;49.34829940;8.43506100;2022-09-02T08:39:23;22.50;67.90
8485;DHT22;34555;49.34829940;8.43506100;2022-09-02T08:42:04;22.50;68.00
8485;DHT22;34555;49.34829940;8.43506100;2022-09-02T08:44:35;22.60;68.00
8485;DHT22;34555;49.34829940;8.43506100;2022-09-02T08:47:04;22.60;68.10
8485;DHT22;34555;49.34829940;8.43506100;2022-09-02T08:49:37;22.60;67.90
8485;DHT22;34555;49.34829940;8.43506100;2022-09-02T08:52:04;22.60;67.80
8485;DHT22;34555;49.34829940;8.43506100;2022-09-02T08:54:46;22.60;67.80
8485;DHT22;34555;49.34829940;8.43506100;2022-09-02T08:57:13;22.70;68.10
8485;DHT22;34555;49.34829940;8.43506100;2022-09-02T08:59:39;22.70;67.70
8485;DHT22;34555;49.34829940;8.43506100;2022-09-02T09:08:22;22.70;67.00
8485;DHT22;34555;49.34829940;8.43506100;2022-09-02T09:13:49;22.90;67.50
8485;DHT22;34555;49.34829940;8.43506100;2022-09-02T09:16:47;22.90;67.20
8485;DHT22;34555;49.34829940;8.43506100;2022-09-02T09:19:36;22.90;67.20
8485;DHT22;34555;49.34829940;8.43506100;2022-09-02T09:22:04;22.90;67.00
8485;DHT22;34555;49.34829940;8.43506100;2022-09-02T09:24:35;22.90;67.20
8485;DHT22;34555;49.34829940;8.43506100;2022-09-02T09:27:06;22.90;67.20
8485;DHT22;34555;49.34829940;8.43506100;2022-09-02T09:29:33;22.90;67.20
8485;DHT22;34555;49.34829940;8.43506100;2022-09-02T09:32:00;22.90;66.40
8485;DHT22;34555;49.34829940;8.43506100;2022-09-02T09:37:42;22.90;66.50
8485;DHT22;34555;49.34829940;8.43506100;2022-09-02T09:42:44;22.90;66.30
8485;DHT22;34555;49.34829940;8.43506100;2022-09-02T09:45:36;22.90;66.40
8485;DHT22;34555;49.34829940;8.43506100;2022-09-02T09:55:58;22.90;66.00
8485;DHT22;34555;49.34829940;8.43506100;2022-09-02T09:58:34;22.90;65.90
8485;DHT22;34555;49.34829940;8.43506100;2022-09-02T10:01:31;22.90;65.70
8485;DHT22;34555;49.34829940;8.43506100;2022-09-02T10:04:06;22.90;65.80
8485;DHT22;34555;49.34829940;8.43506100;2022-09-02T10:06:41;22.90;65.60
8485;DHT22;34555;49.34829940;8.43506100;2022-09-02T10:12:02;23.00;65.50
8485;DHT22;34555;49.34829940;8.43506100;2022-09-02T10:14:40;23.10;65.60
8485;DHT22;34555;49.34829940;8.43506100;2022-09-02T10:17:22;23.00;64.90
8485;DHT22;34555;49.34829940;8.43506100;2022-09-02T10:25:46;23.10;64.50
8485;DHT22;34555;49.34829940;8.43506100;2022-09-02T10:28:29;23.20;65.40
8485;DHT22;34555;49.34829940;8.43506100;2022-09-02T10:42:09;23.30;66.10
8485;DHT22;34555;49.34829940;8.43506100;2022-09-02T10:47:33;23.30;65.80
8485;DHT22;34555;49.34829940;8.43506100;2022-09-02T10:53:23;23.30;65.90
8485;DHT22;34555;49.34829940;8.43506100;2022-09-02T10:56:02;23.30;65.40
8485;DHT22;34555;49.34829940;8.43506100;2022-09-02T11:01:24;23.30;65.50
8485;DHT22;34555;49.34829940;8.43506100;2022-09-02T11:04:04;23.30;65.60
8485;DHT22;34555;49.34829940;8.43506100;2022-09-02T11:06:38;23.30;65.10
8485;DHT22;34555;49.34829940;8.43506100;2022-09-02T11:09:53;23.30;64.70
8485;DHT22;34555;49.34829940;8.43506100;2022-09-02T11:12:06;23.30;65.00
8485;DHT22;34555;49.34829940;8.43506100;2022-09-02T11:17:56;23.40;65.00
8485;DHT22;34555;49.34829940;8.43506100;2022-09-02T11:23:48;23.50;64.70
8485;DHT22;34555;49.34829940;8.43506100;2022-09-02T11:26:23;23.40;62.20
8485;DHT22;34555;49.34829940;8.43506100;2022-09-02T11:29:11;23.40;63.00
8485;DHT22;34555;49.34829940;8.43506100;2022-09-02T11:31:56;23.30;63.70
8485;DHT22;34555;49.34829940;8.43506100;2022-09-02T11:34:46;23.30;64.10
8485;DHT22;34555;49.34829940;8.43506100;2022-09-02T11:37:33;23.30;64.40
8485;DHT22;34555;49.34829940;8.43506100;2022-09-02T11:40:06;23.30;64.60
8485;DHT22;34555;49.34829940;8.43506100;2022-09-02T11:45:38;23.30;64.70
8485;DHT22;34555;49.34829940;8.43506100;2022-09-02T11:48:27;23.30;64.70
8485;DHT22;34555;49.34829940;8.43506100;2022-09-02T11:51:15;23.30;64.70
8485;DHT22;34555;49.34829940;8.43506100;2022-09-02T11:53:45;23.40;64.90
8485;DHT22;34555;49.34829940;8.43506100;2022-09-02T11:56:13;23.30;64.80
8485;DHT22;34555;49.34829940;8.43506100;2022-09-02T11:58:46;23.40;65.00
8485;DHT22;34555;49.34829940;8.43506100;2022-09-02T12:03:45;23.40;65.00
8485;DHT22;34555;49.34829940;8.43506100;2022-09-02T12:06:16;23.40;65.00
8485;DHT22;34555;49.34829940;8.43506100;2022-09-02T12:11:42;23.40;65.00
8485;DHT22;34555;49.34829940;8.43506100;2022-09-02T12:17:05;23.40;65.00
8485;DHT22;34555;49.34829940;8.43506100;2022-09-02T12:24:54;23.50;65.10
8485;DHT22;34555;49.34829940;8.43506100;2022-09-02T12:27:35;23.50;65.00
8485;DHT22;34555;49.34829940;8.43506100;2022-09-02T12:30:04;23.50;65.00
8485;DHT22;34555;49.34829940;8.43506100;2022-09-02T12:35:13;23.50;65.00
8485;DHT22;34555;49.34829940;8.43506100;2022-09-02T12:41:10;23.50;65.00
8485;DHT22;34555;49.34829940;8.43506100;2022-09-02T12:44:00;23.50;65.00
8485;DHT22;34555;49.34829940;8.43506100;2022-09-02T12:46:42;23.50;65.00
8485;DHT22;34555;49.34829940;8.43506100;2022-09-02T12:49:41;23.50;64.90
8485;DHT22;34555;49.34829940;8.43506100;2022-09-02T12:52:37;23.60;65.00
8485;DHT22;34555;49.34829940;8.43506100;2022-09-02T12:57:41;23.60;65.00
8485;DHT22;34555;49.34829940;8.43506100;2022-09-02T13:00:33;23.60;64.90
8485;DHT22;34555;49.34829940;8.43506100;2022-09-02T13:03:22;23.60;64.90
8485;DHT22;34555;49.34829940;8.43506100;2022-09-02T13:14:31;23.70;64.80
8485;DHT22;34555;49.34829940;8.43506100;2022-09-02T13:17:43;23.70;64.90
8485;DHT22;34555;49.34829940;8.43506100;2022-09-02T13:25:45;23.70;64.50
8485;DHT22;34555;49.34829940;8.43506100;2022-09-02T13:31:27;23.70;64.50
8485;DHT22;34555;49.34829940;8.43506100;2022-09-02T13:34:00;23.70;64.50
8485;DHT22;34555;49.34829940;8.43506100;2022-09-02T13:36:36;23.70;64.50
8485;DHT22;34555;49.34829940;8.43506100;2022-09-02T13:39:33;23.80;65.30
8485;DHT22;34555;49.34829940;8.43506100;2022-09-02T13:41:58;23.80;64.60
8485;DHT22;34555;49.34829940;8.43506100;2022-09-02T13:44:27;23.80;64.60
8485;DHT22;34555;49.34829940;8.43506100;2022-09-02T13:47:12;23.80;64.50
8485;DHT22;34555;49.34829940;8.43506100;2022-09-02T13:49:40;23.80;64.30
8485;DHT22;34555;49.34829940;8.43506100;2022-09-02T13:52:14;23.80;64.30
8485;DHT22;34555;49.34829940;8.43506100;2022-09-02T13:54:44;23.90;64.30
8485;DHT22;34555;49.34829940;8.43506100;2022-09-02T13:57:12;23.90;64.30
8485;DHT22;34555;49.34829940;8.43506100;2022-09-02T13:59:50;23.80;64.20
8485;DHT22;34555;49.34829940;8.43506100;2022-09-02T14:02:29;23.90;64.10
8485;DHT22;34555;49.34829940;8.43506100;2022-09-02T14:05:16;23.80;64.20
8485;DHT22;34555;49.34829940;8.43506100;2022-09-02T14:07:46;23.90;64.20
8485;DHT22;34555;49.34829940;8.43506100;2022-09-02T14:10:16;23.90;64.30
8485;DHT22;34555;49.34829940;8.43506100;2022-09-02T14:12:43;23.90;64.30
8485;DHT22;34555;49.34829940;8.43506100;2022-09-02T14:15:11;23.90;64.20
8485;DHT22;34555;49.34829940;8.43506100;2022-09-02T14:17:37;23.80;64.10
8485;DHT22;34555;49.34829940;8.43506100;2022-09-02T14:20:17;23.90;64.00
8485;DHT22;34555;49.34829940;8.43506100;2022-09-02T14:22:53;23.90;64.00
8485;DHT22;34555;49.34829940;8.43506100;2022-09-02T14:25:20;23.90;64.00
8485;DHT22;34555;49.34829940;8.43506100;2022-09-02T14:27:56;23.90;63.90
8485;DHT22;34555;49.34829940;8.43506100;2022-09-02T14:30:32;23.90;63.90
8485;DHT22;34555;49.34829940;8.43506100;2022-09-02T14:51:57;24.00;63.50
8485;DHT22;34555;49.34829940;8.43506100;2022-09-02T14:54:38;24.00;63.30
8485;DHT22;34555;49.34829940;8.43506100;2022-09-02T14:57:27;24.00;63.40
8485;DHT22;34555;49.34829940;8.43506100;2022-09-02T14:59:53;24.00;63.40
8485;DHT22;34555;49.34829940;8.43506100;2022-09-02T15:02:31;24.00;63.30
8485;DHT22;34555;49.34829940;8.43506100;2022-09-02T15:05:00;24.00;63.30
8485;DHT22;34555;49.34829940;8.43506100;2022-09-02T15:07:26;24.00;62.70
8485;DHT22;34555;49.34829940;8.43506100;2022-09-02T15:09:52;24.10;62.90
8485;DHT22;34555;49.34829940;8.43506100;2022-09-02T15:12:24;24.10;62.80
8485;DHT22;34555;49.34829940;8.43506100;2022-09-02T15:14:51;24.10;62.50
8485;DHT22;34555;49.34829940;8.43506100;2022-09-02T15:17:17;24.10;62.60
8485;DHT22;34555;49.34829940;8.43506100;2022-09-02T15:19:42;24.10;62.40
8485;DHT22;34555;49.34829940;8.43506100;2022-09-02T15:22:08;24.10;62.40
8485;DHT22;34555;49.34829940;8.43506100;2022-09-02T15:24:34;24.10;62.50
8485;DHT22;34555;49.34829940;8.43506100;2022-09-02T15:26:59;24.10;62.20
8485;DHT22;34555;49.34829940;8.43506100;2022-09-02T15:29:25;24.10;62.30
8485;DHT22;34555;49.34829940;8.43506100;2022-09-02T15:31:51;24.10;62.20
8485;DHT22;34555;49.34829940;8.43506100;2022-09-02T15:34:16;24.20;62.20
8485;DHT22;34555;49.34829940;8.43506100;2022-09-02T15:36:42;24.20;61.90
8485;DHT22;34555;49.34829940;8.43506100;2022-09-02T15:39:08;24.20;62.30
8485;DHT22;34555;49.34829940;8.43506100;2022-09-02T15:41:33;24.20;62.20
8485;DHT22;34555;49.34829940;8.43506100;2022-09-02T15:44:00;24.20;62.30
8485;DHT22;34555;49.34829940;8.43506100;2022-09-02T15:46:30;24.20;62.10